ADDS - METARS form results

Aviation Digital Data Service (ADDS)

Output produced by METARs form (1106 UTC 18 August 2019)
found at http://aviationweather.gov/metar/data/
 
METAR text: KJOT 181055Z AUTO 19003KT 10SM TS SCT120 22/22 A2983 RMK AO2 LTG DSNT E THRU W T02160216
Conditions at: KJOT (JOLIET , IL, US) observed 1055 UTC 18 August 2019
Temperature: 21.6°C (71°F)
Dewpoint: 21.6°C (71°F) [RH = 100%]
Pressure (altimeter): 29.83 inches Hg (1010.2 mb)
Winds: from the S (190 degrees) at 3 MPH (3 knots; 1.5 m/s)
Visibility: 10 or more miles (16+ km)
Ceiling: at least 12,000 feet AGL
Clouds: scattered clouds at 12000 feet AGL
Weather: TS  (thunderstorm)

METAR text: KJOT 181035Z AUTO 18005KT 10SM SCT120 22/22 A2983 RMK AO2 LTG DSNT SW T02150215
Conditions at: KJOT (JOLIET , IL, US) observed 1035 UTC 18 August 2019
Temperature: 21.5°C (71°F)
Dewpoint: 21.5°C (71°F) [RH = 100%]
Pressure (altimeter): 29.83 inches Hg (1010.2 mb)
Winds: from the S (180 degrees) at 6 MPH (5 knots; 2.6 m/s)
Visibility: 10 or more miles (16+ km)
Ceiling: at least 12,000 feet AGL
Clouds: scattered clouds at 12000 feet AGL
Weather: automated observation with no human augmentation;
there may or may not be significant weather present at this time

METAR text: KJOT 181015Z AUTO 14005KT 10SM CLR 21/21 A2980 RMK AO2 T02130213
Conditions at: KJOT (JOLIET , IL, US) observed 1015 UTC 18 August 2019
Temperature: 21.3°C (70°F)
Dewpoint: 21.3°C (70°F) [RH = 100%]
Pressure (altimeter): 29.80 inches Hg (1009.2 mb)
Winds: from the SE (140 degrees) at 6 MPH (5 knots; 2.6 m/s)
Visibility: 10 or more miles (16+ km)
Ceiling: at least 12,000 feet AGL
Clouds: sky clear below 12,000 feet AGL
Weather: automated observation with no human augmentation;
there may or may not be significant weather present at this time